WMKC/KBR METAR and TAF weather

Enter ICAO airport designator
Station Type Date Time Source
WMKC METAR 2021/03/03 21:00 UTC NOAA

WMKC 032100Z 08009KT 9999 SCT020 27/24 Q1011


Station Type Date Time Source
WMKC Decoded METAR 2021/03/03 21:00 UTC NOAA

Kota Bharu, Malaysia (WMKC) 06-10N 102-17E 5M
Mar 03, 2021 - 04:00 PM EST / 2021.03.03 2100 UTC
Wind: from the E (080 degrees) at 10 MPH (9 KT):0
Visibility: greater than 7 mile(s):0
Sky conditions: partly cloudy
Temperature: 80 F (27 C)
Dew Point: 75 F (24 C)
Relative Humidity: 83%
Pressure (altimeter): 29.85 in. Hg (1011 hPa)
ob: WMKC 032100Z 08009KT 9999 SCT020 27/24 Q1011
cycle: 21

Station Type Date Time Source
WMKC TAF 2021/03/03 18:00 UTC NOAA

TAF WMKC 031700Z 0318/0418 09006KT 9999 FEW020
BECMG 0400/0401 VRB03KT FEW018
BECMG 0405/0406 08010KT
BECMG 0412/0413 FEW020

Example: see airport list